Terminal Aerodrome Forecast
Issued by NWS Newport/Morehead City, NC

Home | Current Version | Previous Version | Text Only | Print | Product List | Glossary On
Versions: 1 2 3 4 5 6 7 8 9 10 11 12
173
FTUS42 KMHX 181738
TAFEWN
TAF
KEWN 181738Z 1818/1918 VRB05KT P6SM SCT025
     FM182300 00000KT P6SM SCT200
     FM190700 00000KT 2SM BR SCT007
     FM191300 26006KT P6SM SCT250=

USA.gov is the U.S. government's official web portal to all federal, state and local government web resources and services.